sensor_id;sensor_type;location;lat;lon;timestamp;temperature;humidity
77277;DHT22;66330;52.166;9.978;2023-04-24T00:01:22;14.00;66.50
77277;DHT22;66330;52.166;9.978;2023-04-24T00:03:47;14.00;66.60
77277;DHT22;66330;52.166;9.978;2023-04-24T00:06:13;13.90;66.90
77277;DHT22;66330;52.166;9.978;2023-04-24T00:08:39;14.00;66.70
77277;DHT22;66330;52.166;9.978;2023-04-24T00:11:04;14.10;67.30
77277;DHT22;66330;52.166;9.978;2023-04-24T00:13:30;14.00;67.40
77277;DHT22;66330;52.166;9.978;2023-04-24T00:15:56;13.80;66.70
77277;DHT22;66330;52.166;9.978;2023-04-24T00:18:22;13.70;67.30
77277;DHT22;66330;52.166;9.978;2023-04-24T00:20:47;13.90;67.20
77277;DHT22;66330;52.166;9.978;2023-04-24T00:23:13;13.60;67.20
77277;DHT22;66330;52.166;9.978;2023-04-24T00:25:39;13.40;67.40
77277;DHT22;66330;52.166;9.978;2023-04-24T00:28:05;13.60;67.70
77277;DHT22;66330;52.166;9.978;2023-04-24T00:30:31;13.60;67.40
77277;DHT22;66330;52.166;9.978;2023-04-24T00:32:57;13.60;68.00
77277;DHT22;66330;52.166;9.978;2023-04-24T00:35:22;13.60;68.70
77277;DHT22;66330;52.166;9.978;2023-04-24T00:37:48;13.60;68.00
77277;DHT22;66330;52.166;9.978;2023-04-24T00:40:14;13.60;67.60
77277;DHT22;66330;52.166;9.978;2023-04-24T00:42:40;13.60;68.30
77277;DHT22;66330;52.166;9.978;2023-04-24T00:45:06;13.70;68.30
77277;DHT22;66330;52.166;9.978;2023-04-24T00:47:36;13.70;68.10
77277;DHT22;66330;52.166;9.978;2023-04-24T00:50:03;13.70;68.20
77277;DHT22;66330;52.166;9.978;2023-04-24T00:52:29;13.70;68.30
77277;DHT22;66330;52.166;9.978;2023-04-24T00:54:56;13.60;67.70
77277;DHT22;66330;52.166;9.978;2023-04-24T00:57:22;13.80;68.60
77277;DHT22;66330;52.166;9.978;2023-04-24T00:59:48;13.50;68.40
77277;DHT22;66330;52.166;9.978;2023-04-24T01:02:14;13.50;68.70
77277;DHT22;66330;52.166;9.978;2023-04-24T01:04:40;13.40;68.80
77277;DHT22;66330;52.166;9.978;2023-04-24T01:07:06;13.30;68.50
77277;DHT22;66330;52.166;9.978;2023-04-24T01:09:42;13.30;68.50
77277;DHT22;66330;52.166;9.978;2023-04-24T01:12:09;13.20;68.60
77277;DHT22;66330;52.166;9.978;2023-04-24T01:14:35;13.20;69.10
77277;DHT22;66330;52.166;9.978;2023-04-24T01:17:01;13.20;69.40
77277;DHT22;66330;52.166;9.978;2023-04-24T01:19:27;13.50;69.10
77277;DHT22;66330;52.166;9.978;2023-04-24T01:21:54;13.10;69.60
77277;DHT22;66330;52.166;9.978;2023-04-24T01:24:23;13.10;69.70
77277;DHT22;66330;52.166;9.978;2023-04-24T01:26:48;13.20;70.00
77277;DHT22;66330;52.166;9.978;2023-04-24T01:29:14;13.00;69.80
77277;DHT22;66330;52.166;9.978;2023-04-24T01:31:40;13.00;70.20
77277;DHT22;66330;52.166;9.978;2023-04-24T01:34:06;12.90;70.20
77277;DHT22;66330;52.166;9.978;2023-04-24T01:36:33;12.90;70.30
77277;DHT22;66330;52.166;9.978;2023-04-24T01:39:00;12.90;70.50
77277;DHT22;66330;52.166;9.978;2023-04-24T01:41:26;12.80;70.20
77277;DHT22;66330;52.166;9.978;2023-04-24T01:43:52;12.80;70.70
77277;DHT22;66330;52.166;9.978;2023-04-24T01:46:18;12.70;71.50
77277;DHT22;66330;52.166;9.978;2023-04-24T01:48:45;12.80;70.40
77277;DHT22;66330;52.166;9.978;2023-04-24T01:51:11;12.70;70.10
77277;DHT22;66330;52.166;9.978;2023-04-24T01:53:36;12.70;70.90
77277;DHT22;66330;52.166;9.978;2023-04-24T01:56:02;12.70;70.90
77277;DHT22;66330;52.166;9.978;2023-04-24T01:58:28;12.70;70.90
77277;DHT22;66330;52.166;9.978;2023-04-24T02:00:56;12.60;70.70
77277;DHT22;66330;52.166;9.978;2023-04-24T02:03:24;12.60;70.90
77277;DHT22;66330;52.166;9.978;2023-04-24T02:05:50;12.60;70.80
77277;DHT22;66330;52.166;9.978;2023-04-24T02:08:15;12.90;71.20
77277;DHT22;66330;52.166;9.978;2023-04-24T02:10:41;12.60;70.90
77277;DHT22;66330;52.166;9.978;2023-04-24T02:13:06;12.60;70.20
77277;DHT22;66330;52.166;9.978;2023-04-24T02:15:32;12.50;70.70
77277;DHT22;66330;52.166;9.978;2023-04-24T02:17:57;12.50;70.70
77277;DHT22;66330;52.166;9.978;2023-04-24T02:20:23;12.50;70.60
77277;DHT22;66330;52.166;9.978;2023-04-24T02:22:49;12.50;69.80
77277;DHT22;66330;52.166;9.978;2023-04-24T02:25:14;12.50;70.60
77277;DHT22;66330;52.166;9.978;2023-04-24T02:27:40;12.50;70.60
77277;DHT22;66330;52.166;9.978;2023-04-24T02:30:06;12.80;71.10
77277;DHT22;66330;52.166;9.978;2023-04-24T02:32:32;12.40;70.70
77277;DHT22;66330;52.166;9.978;2023-04-24T02:34:59;12.40;70.90
77277;DHT22;66330;52.166;9.978;2023-04-24T02:37:24;12.40;70.70
77277;DHT22;66330;52.166;9.978;2023-04-24T02:39:50;12.40;70.70
77277;DHT22;66330;52.166;9.978;2023-04-24T02:42:15;12.30;70.70
77277;DHT22;66330;52.166;9.978;2023-04-24T02:44:41;12.30;70.80
77277;DHT22;66330;52.166;9.978;2023-04-24T02:47:07;12.70;71.40
77277;DHT22;66330;52.166;9.978;2023-04-24T02:49:33;12.20;70.80
77277;DHT22;66330;52.166;9.978;2023-04-24T02:51:59;12.20;70.80
77277;DHT22;66330;52.166;9.978;2023-04-24T02:54:25;12.20;70.00
77277;DHT22;66330;52.166;9.978;2023-04-24T02:56:50;12.20;70.90
77277;DHT22;66330;52.166;9.978;2023-04-24T02:59:16;12.10;70.80
77277;DHT22;66330;52.166;9.978;2023-04-24T03:01:41;12.10;70.80
77277;DHT22;66330;52.166;9.978;2023-04-24T03:04:07;12.10;70.80
77277;DHT22;66330;52.166;9.978;2023-04-24T03:06:32;12.10;70.70
77277;DHT22;66330;52.166;9.978;2023-04-24T03:09:00;12.10;70.90
77277;DHT22;66330;52.166;9.978;2023-04-24T03:11:26;12.00;70.70
77277;DHT22;66330;52.166;9.978;2023-04-24T03:13:51;12.00;70.00
77277;DHT22;66330;52.166;9.978;2023-04-24T03:16:17;12.20;71.00
77277;DHT22;66330;52.166;9.978;2023-04-24T03:18:42;11.90;70.60
77277;DHT22;66330;52.166;9.978;2023-04-24T03:21:08;11.90;70.70
77277;DHT22;66330;52.166;9.978;2023-04-24T03:23:33;11.90;70.70
77277;DHT22;66330;52.166;9.978;2023-04-24T03:25:59;11.90;70.30
77277;DHT22;66330;52.166;9.978;2023-04-24T03:28:25;12.00;69.90
77277;DHT22;66330;52.166;9.978;2023-04-24T03:30:50;11.80;70.10
77277;DHT22;66330;52.166;9.978;2023-04-24T03:33:16;11.80;70.20
77277;DHT22;66330;52.166;9.978;2023-04-24T03:35:42;11.80;70.20
77277;DHT22;66330;52.166;9.978;2023-04-24T03:38:07;11.80;70.20
77277;DHT22;66330;52.166;9.978;2023-04-24T03:40:33;12.30;70.80
77277;DHT22;66330;52.166;9.978;2023-04-24T03:42:59;11.80;70.10
77277;DHT22;66330;52.166;9.978;2023-04-24T03:45:24;11.80;70.00
77277;DHT22;66330;52.166;9.978;2023-04-24T03:47:50;11.70;69.90
77277;DHT22;66330;52.166;9.978;2023-04-24T03:50:15;11.80;69.80
77277;DHT22;66330;52.166;9.978;2023-04-24T03:52:41;11.70;69.50
77277;DHT22;66330;52.166;9.978;2023-04-24T03:55:07;11.70;69.70
77277;DHT22;66330;52.166;9.978;2023-04-24T03:57:32;11.70;69.70
77277;DHT22;66330;52.166;9.978;2023-04-24T03:59:58;11.70;69.60
77277;DHT22;66330;52.166;9.978;2023-04-24T04:02:23;11.60;69.50
77277;DHT22;66330;52.166;9.978;2023-04-24T04:04:49;11.60;69.50
77277;DHT22;66330;52.166;9.978;2023-04-24T04:07:15;11.60;69.10
77277;DHT22;66330;52.166;9.978;2023-04-24T04:09:40;11.60;69.40
77277;DHT22;66330;52.166;9.978;2023-04-24T04:12:06;11.60;69.70
77277;DHT22;66330;52.166;9.978;2023-04-24T04:14:31;12.00;70.00
77277;DHT22;66330;52.166;9.978;2023-04-24T04:16:57;11.70;69.70
77277;DHT22;66330;52.166;9.978;2023-04-24T04:19:22;11.70;69.40
77277;DHT22;66330;52.166;9.978;2023-04-24T04:21:48;11.70;69.60
77277;DHT22;66330;52.166;9.978;2023-04-24T04:24:18;11.70;69.10
77277;DHT22;66330;52.166;9.978;2023-04-24T04:26:44;11.70;69.20
77277;DHT22;66330;52.166;9.978;2023-04-24T04:29:12;11.70;69.60
77277;DHT22;66330;52.166;9.978;2023-04-24T04:31:38;11.80;69.90
77277;DHT22;66330;52.166;9.978;2023-04-24T04:34:03;11.80;69.90
77277;DHT22;66330;52.166;9.978;2023-04-24T04:36:29;11.80;69.80
77277;DHT22;66330;52.166;9.978;2023-04-24T04:38:54;11.90;69.90
77277;DHT22;66330;52.166;9.978;2023-04-24T04:41:20;12.00;69.60
77277;DHT22;66330;52.166;9.978;2023-04-24T04:43:46;11.90;69.90
77277;DHT22;66330;52.166;9.978;2023-04-24T04:46:12;12.00;69.40
77277;DHT22;66330;52.166;9.978;2023-04-24T04:48:38;12.10;69.80
77277;DHT22;66330;52.166;9.978;2023-04-24T04:51:04;12.10;69.90
77277;DHT22;66330;52.166;9.978;2023-04-24T04:53:30;12.20;69.30
77277;DHT22;66330;52.166;9.978;2023-04-24T04:55:56;12.30;69.20
77277;DHT22;66330;52.166;9.978;2023-04-24T04:58:22;12.40;69.70
77277;DHT22;66330;52.166;9.978;2023-04-24T05:00:47;12.40;69.00
77277;DHT22;66330;52.166;9.978;2023-04-24T05:03:13;12.50;69.50
77277;DHT22;66330;52.166;9.978;2023-04-24T05:05:39;12.50;69.30
77277;DHT22;66330;52.166;9.978;2023-04-24T05:08:07;12.60;69.00
77277;DHT22;66330;52.166;9.978;2023-04-24T05:10:32;12.70;69.20
77277;DHT22;66330;52.166;9.978;2023-04-24T05:12:58;12.80;69.10
77277;DHT22;66330;52.166;9.978;2023-04-24T05:15:23;12.80;68.40
77277;DHT22;66330;52.166;9.978;2023-04-24T05:17:49;12.90;68.30
77277;DHT22;66330;52.166;9.978;2023-04-24T05:20:15;13.00;68.00
77277;DHT22;66330;52.166;9.978;2023-04-24T05:22:40;12.90;68.10
77277;DHT22;66330;52.166;9.978;2023-04-24T05:25:06;13.10;68.10
77277;DHT22;66330;52.166;9.978;2023-04-24T05:27:32;13.10;68.10
77277;DHT22;66330;52.166;9.978;2023-04-24T05:29:57;13.10;67.80
77277;DHT22;66330;52.166;9.978;2023-04-24T05:32:23;13.50;67.30
77277;DHT22;66330;52.166;9.978;2023-04-24T05:34:48;13.20;67.10
77277;DHT22;66330;52.166;9.978;2023-04-24T05:37:14;13.80;68.10
77277;DHT22;66330;52.166;9.978;2023-04-24T05:39:39;13.30;67.50
77277;DHT22;66330;52.166;9.978;2023-04-24T05:42:06;13.40;67.40
77277;DHT22;66330;52.166;9.978;2023-04-24T05:44:32;13.40;67.00
77277;DHT22;66330;52.166;9.978;2023-04-24T05:46:58;13.40;66.90
77277;DHT22;66330;52.166;9.978;2023-04-24T05:49:23;13.50;66.70
77277;DHT22;66330;52.166;9.978;2023-04-24T05:51:49;13.50;66.20
77277;DHT22;66330;52.166;9.978;2023-04-24T05:54:14;13.90;67.30
77277;DHT22;66330;52.166;9.978;2023-04-24T05:56:40;13.50;66.70
77277;DHT22;66330;52.166;9.978;2023-04-24T05:59:06;13.50;66.50
77277;DHT22;66330;52.166;9.978;2023-04-24T06:01:32;13.50;66.20
77277;DHT22;66330;52.166;9.978;2023-04-24T06:03:58;13.60;66.10
77277;DHT22;66330;52.166;9.978;2023-04-24T06:06:24;13.70;66.70
77277;DHT22;66330;52.166;9.978;2023-04-24T06:08:49;14.10;66.70
77277;DHT22;66330;52.166;9.978;2023-04-24T06:11:15;13.90;66.90
77277;DHT22;66330;52.166;9.978;2023-04-24T06:13:41;14.20;66.90
77277;DHT22;66330;52.166;9.978;2023-04-24T06:16:06;14.40;66.40
77277;DHT22;66330;52.166;9.978;2023-04-24T06:18:32;14.50;65.30
77277;DHT22;66330;52.166;9.978;2023-04-24T06:20:57;14.60;64.50
77277;DHT22;66330;52.166;9.978;2023-04-24T06:23:23;14.90;64.80
77277;DHT22;66330;52.166;9.978;2023-04-24T06:25:49;14.60;64.10
77277;DHT22;66330;52.166;9.978;2023-04-24T06:28:15;14.50;64.70
77277;DHT22;66330;52.166;9.978;2023-04-24T06:30:40;13.90;63.60
77277;DHT22;66330;52.166;9.978;2023-04-24T06:33:06;14.40;64.90
77277;DHT22;66330;52.166;9.978;2023-04-24T06:35:32;14.30;65.60
77277;DHT22;66330;52.166;9.978;2023-04-24T06:37:57;13.70;64.90
77277;DHT22;66330;52.166;9.978;2023-04-24T06:40:23;13.60;64.90
77277;DHT22;66330;52.166;9.978;2023-04-24T06:42:48;13.20;64.30
77277;DHT22;66330;52.166;9.978;2023-04-24T06:45:14;12.90;65.20
77277;DHT22;66330;52.166;9.978;2023-04-24T06:47:39;12.60;66.10
77277;DHT22;66330;52.166;9.978;2023-04-24T06:50:05;12.40;66.90
77277;DHT22;66330;52.166;9.978;2023-04-24T06:52:31;12.30;67.20
77277;DHT22;66330;52.166;9.978;2023-04-24T06:55:04;12.10;67.10
77277;DHT22;66330;52.166;9.978;2023-04-24T06:57:30;12.10;67.90
77277;DHT22;66330;52.166;9.978;2023-04-24T06:59:56;12.00;68.30
77277;DHT22;66330;52.166;9.978;2023-04-24T07:02:22;11.80;68.30
77277;DHT22;66330;52.166;9.978;2023-04-24T07:04:47;12.00;67.90
77277;DHT22;66330;52.166;9.978;2023-04-24T07:07:14;12.10;69.10
77277;DHT22;66330;52.166;9.978;2023-04-24T07:09:40;12.10;69.00
77277;DHT22;66330;52.166;9.978;2023-04-24T07:12:09;12.20;68.80
77277;DHT22;66330;52.166;9.978;2023-04-24T07:14:39;12.30;68.80
77277;DHT22;66330;52.166;9.978;2023-04-24T07:17:05;12.30;68.60
77277;DHT22;66330;52.166;9.978;2023-04-24T07:19:32;12.40;68.70
77277;DHT22;66330;52.166;9.978;2023-04-24T07:21:58;12.50;68.50
77277;DHT22;66330;52.166;9.978;2023-04-24T07:24:25;12.60;68.70
77277;DHT22;66330;52.166;9.978;2023-04-24T07:26:51;12.70;68.70
77277;DHT22;66330;52.166;9.978;2023-04-24T07:29:18;12.80;68.70
77277;DHT22;66330;52.166;9.978;2023-04-24T07:31:43;12.90;68.10
77277;DHT22;66330;52.166;9.978;2023-04-24T07:34:09;13.00;67.70
77277;DHT22;66330;52.166;9.978;2023-04-24T07:36:35;13.10;66.90
77277;DHT22;66330;52.166;9.978;2023-04-24T07:39:01;13.10;65.70
77277;DHT22;66330;52.166;9.978;2023-04-24T07:41:26;13.10;64.90
77277;DHT22;66330;52.166;9.978;2023-04-24T07:43:53;13.10;64.50
77277;DHT22;66330;52.166;9.978;2023-04-24T07:46:19;13.20;64.30
77277;DHT22;66330;52.166;9.978;2023-04-24T07:48:45;13.40;64.10
77277;DHT22;66330;52.166;9.978;2023-04-24T07:51:14;13.50;63.10
77277;DHT22;66330;52.166;9.978;2023-04-24T07:53:40;13.90;63.10
77277;DHT22;66330;52.166;9.978;2023-04-24T07:56:06;14.80;63.00
77277;DHT22;66330;52.166;9.978;2023-04-24T07:58:31;14.90;61.60
77277;DHT22;66330;52.166;9.978;2023-04-24T08:00:57;15.60;60.80
77277;DHT22;66330;52.166;9.978;2023-04-24T08:03:22;16.30;59.60
77277;DHT22;66330;52.166;9.978;2023-04-24T08:05:48;16.90;57.80
77277;DHT22;66330;52.166;9.978;2023-04-24T08:08:16;17.50;56.30
77277;DHT22;66330;52.166;9.978;2023-04-24T08:10:42;17.80;54.90
77277;DHT22;66330;52.166;9.978;2023-04-24T08:13:07;17.90;53.00
77277;DHT22;66330;52.166;9.978;2023-04-24T08:15:33;17.90;52.50
77277;DHT22;66330;52.166;9.978;2023-04-24T08:17:58;18.10;52.20
77277;DHT22;66330;52.166;9.978;2023-04-24T08:20:24;18.10;50.80
77277;DHT22;66330;52.166;9.978;2023-04-24T08:22:50;18.00;50.00
77277;DHT22;66330;52.166;9.978;2023-04-24T08:25:15;18.00;50.00
77277;DHT22;66330;52.166;9.978;2023-04-24T08:27:41;18.10;49.50
77277;DHT22;66330;52.166;9.978;2023-04-24T08:30:07;18.30;49.60
77277;DHT22;66330;52.166;9.978;2023-04-24T08:32:33;18.60;49.20
77277;DHT22;66330;52.166;9.978;2023-04-24T08:34:59;18.80;48.70
77277;DHT22;66330;52.166;9.978;2023-04-24T08:37:26;19.00;48.30
77277;DHT22;66330;52.166;9.978;2023-04-24T08:39:52;19.20;47.60
77277;DHT22;66330;52.166;9.978;2023-04-24T08:42:19;19.20;46.70
77277;DHT22;66330;52.166;9.978;2023-04-24T08:44:45;18.90;46.40
77277;DHT22;66330;52.166;9.978;2023-04-24T08:47:11;19.10;46.00
77277;DHT22;66330;52.166;9.978;2023-04-24T08:49:38;18.90;45.90
77277;DHT22;66330;52.166;9.978;2023-04-24T08:52:05;18.60;45.80
77277;DHT22;66330;52.166;9.978;2023-04-24T08:54:32;18.40;45.80
77277;DHT22;66330;52.166;9.978;2023-04-24T08:57:00;18.20;45.70
77277;DHT22;66330;52.166;9.978;2023-04-24T08:59:30;18.30;46.20
77277;DHT22;66330;52.166;9.978;2023-04-24T09:01:56;18.30;46.10
77277;DHT22;66330;52.166;9.978;2023-04-24T09:04:23;18.30;45.40
77277;DHT22;66330;52.166;9.978;2023-04-24T09:06:57;18.20;45.10
77277;DHT22;66330;52.166;9.978;2023-04-24T09:09:24;18.10;44.60
77277;DHT22;66330;52.166;9.978;2023-04-24T09:11:51;18.00;44.50
77277;DHT22;66330;52.166;9.978;2023-04-24T09:14:19;18.00;44.70
77277;DHT22;66330;52.166;9.978;2023-04-24T09:16:46;18.10;45.00
77277;DHT22;66330;52.166;9.978;2023-04-24T09:19:12;18.10;44.20
77277;DHT22;66330;52.166;9.978;2023-04-24T09:21:37;18.00;44.00
77277;DHT22;66330;52.166;9.978;2023-04-24T09:24:07;18.00;43.90
77277;DHT22;66330;52.166;9.978;2023-04-24T09:26:35;18.00;44.00
77277;DHT22;66330;52.166;9.978;2023-04-24T09:29:01;18.00;44.00
77277;DHT22;66330;52.166;9.978;2023-04-24T09:31:28;18.00;44.00
77277;DHT22;66330;52.166;9.978;2023-04-24T09:33:59;17.90;43.30
77277;DHT22;66330;52.166;9.978;2023-04-24T09:36:30;17.70;43.30
77277;DHT22;66330;52.166;9.978;2023-04-24T09:39:02;17.50;43.60
77277;DHT22;66330;52.166;9.978;2023-04-24T09:41:28;17.40;43.90
77277;DHT22;66330;52.166;9.978;2023-04-24T09:43:55;17.40;44.20
77277;DHT22;66330;52.166;9.978;2023-04-24T09:46:21;17.60;44.60
77277;DHT22;66330;52.166;9.978;2023-04-24T09:48:48;17.60;44.30
77277;DHT22;66330;52.166;9.978;2023-04-24T09:51:13;17.50;44.10
77277;DHT22;66330;52.166;9.978;2023-04-24T09:53:45;17.50;44.40
77277;DHT22;66330;52.166;9.978;2023-04-24T09:56:11;17.60;44.20
77277;DHT22;66330;52.166;9.978;2023-04-24T09:58:38;17.60;44.00
77277;DHT22;66330;52.166;9.978;2023-04-24T10:01:04;17.70;44.10
77277;DHT22;66330;52.166;9.978;2023-04-24T10:03:31;17.60;43.90
77277;DHT22;66330;52.166;9.978;2023-04-24T10:06:02;17.60;43.50
77277;DHT22;66330;52.166;9.978;2023-04-24T10:08:34;17.50;43.70
77277;DHT22;66330;52.166;9.978;2023-04-24T10:11:00;17.50;43.60
77277;DHT22;66330;52.166;9.978;2023-04-24T10:13:26;17.40;43.60
77277;DHT22;66330;52.166;9.978;2023-04-24T10:15:52;17.30;43.70
77277;DHT22;66330;52.166;9.978;2023-04-24T10:18:17;17.10;43.60
77277;DHT22;66330;52.166;9.978;2023-04-24T10:20:44;16.90;44.10
77277;DHT22;66330;52.166;9.978;2023-04-24T10:23:10;16.70;44.00
77277;DHT22;66330;52.166;9.978;2023-04-24T10:25:37;16.50;44.40
77277;DHT22;66330;52.166;9.978;2023-04-24T10:28:03;16.30;44.40
77277;DHT22;66330;52.166;9.978;2023-04-24T10:30:31;16.10;44.80
77277;DHT22;66330;52.166;9.978;2023-04-24T10:33:01;15.90;44.70
77277;DHT22;66330;52.166;9.978;2023-04-24T10:35:26;15.70;45.40
77277;DHT22;66330;52.166;9.978;2023-04-24T10:38:03;15.70;45.90
77277;DHT22;66330;52.166;9.978;2023-04-24T10:40:34;15.70;45.90
77277;DHT22;66330;52.166;9.978;2023-04-24T10:43:02;15.80;46.60
77277;DHT22;66330;52.166;9.978;2023-04-24T10:45:28;15.80;46.50
77277;DHT22;66330;52.166;9.978;2023-04-24T10:48:08;15.80;46.20
77277;DHT22;66330;52.166;9.978;2023-04-24T10:50:47;15.80;46.50
77277;DHT22;66330;52.166;9.978;2023-04-24T10:53:28;15.90;46.80
77277;DHT22;66330;52.166;9.978;2023-04-24T10:56:08;16.10;47.10
77277;DHT22;66330;52.166;9.978;2023-04-24T10:58:43;16.20;46.80
77277;DHT22;66330;52.166;9.978;2023-04-24T11:03:53;16.10;46.30
77277;DHT22;66330;52.166;9.978;2023-04-24T11:06:37;15.90;46.10
77277;DHT22;66330;52.166;9.978;2023-04-24T11:09:07;15.70;46.60
77277;DHT22;66330;52.166;9.978;2023-04-24T11:11:35;15.50;47.10
77277;DHT22;66330;52.166;9.978;2023-04-24T11:14:05;14.90;48.10
77277;DHT22;66330;52.166;9.978;2023-04-24T11:16:52;14.90;49.70
77277;DHT22;66330;52.166;9.978;2023-04-24T11:19:21;14.80;51.20
77277;DHT22;66330;52.166;9.978;2023-04-24T11:29:39;15.30;51.40
77277;DHT22;66330;52.166;9.978;2023-04-24T11:34:40;15.50;50.70
77277;DHT22;66330;52.166;9.978;2023-04-24T11:37:06;15.70;50.40
77277;DHT22;66330;52.166;9.978;2023-04-24T11:39:36;15.70;49.70
77277;DHT22;66330;52.166;9.978;2023-04-24T11:42:03;15.60;49.30
77277;DHT22;66330;52.166;9.978;2023-04-24T11:44:29;15.70;49.10
77277;DHT22;66330;52.166;9.978;2023-04-24T11:46:56;15.70;48.90
77277;DHT22;66330;52.166;9.978;2023-04-24T11:49:21;15.80;49.00
77277;DHT22;66330;52.166;9.978;2023-04-24T11:51:47;16.00;49.10
77277;DHT22;66330;52.166;9.978;2023-04-24T11:54:13;16.20;48.60
77277;DHT22;66330;52.166;9.978;2023-04-24T11:56:38;16.40;48.50
77277;DHT22;66330;52.166;9.978;2023-04-24T11:59:04;16.60;48.30
77277;DHT22;66330;52.166;9.978;2023-04-24T12:01:33;17.30;48.10
77277;DHT22;66330;52.166;9.978;2023-04-24T12:04:07;18.00;47.00
77277;DHT22;66330;52.166;9.978;2023-04-24T12:06:32;18.70;45.80
77277;DHT22;66330;52.166;9.978;2023-04-24T12:08:58;18.30;45.10
77277;DHT22;66330;52.166;9.978;2023-04-24T12:11:24;18.30;45.30
77277;DHT22;66330;52.166;9.978;2023-04-24T12:13:51;17.70;45.20
77277;DHT22;66330;52.166;9.978;2023-04-24T12:16:16;17.30;45.30
77277;DHT22;66330;52.166;9.978;2023-04-24T12:18:43;16.80;47.10
77277;DHT22;66330;52.166;9.978;2023-04-24T12:21:21;16.20;48.90
77277;DHT22;66330;52.166;9.978;2023-04-24T12:23:48;15.50;50.90
77277;DHT22;66330;52.166;9.978;2023-04-24T12:26:23;14.90;52.10
77277;DHT22;66330;52.166;9.978;2023-04-24T12:28:49;14.40;53.60
77277;DHT22;66330;52.166;9.978;2023-04-24T12:31:16;14.00;54.50
77277;DHT22;66330;52.166;9.978;2023-04-24T12:33:42;13.70;56.10
77277;DHT22;66330;52.166;9.978;2023-04-24T12:36:10;13.50;56.00
77277;DHT22;66330;52.166;9.978;2023-04-24T12:38:38;13.30;56.90
77277;DHT22;66330;52.166;9.978;2023-04-24T12:41:07;13.10;58.30
77277;DHT22;66330;52.166;9.978;2023-04-24T12:43:33;13.00;58.80
77277;DHT22;66330;52.166;9.978;2023-04-24T12:45:59;13.20;59.90
77277;DHT22;66330;52.166;9.978;2023-04-24T12:48:28;13.80;61.30
77277;DHT22;66330;52.166;9.978;2023-04-24T12:50:54;14.60;60.00
77277;DHT22;66330;52.166;9.978;2023-04-24T12:53:22;14.60;58.40
77277;DHT22;66330;52.166;9.978;2023-04-24T12:55:47;14.70;58.00
77277;DHT22;66330;52.166;9.978;2023-04-24T12:58:19;15.00;57.80
77277;DHT22;66330;52.166;9.978;2023-04-24T13:00:45;15.60;57.30
77277;DHT22;66330;52.166;9.978;2023-04-24T13:03:11;15.80;55.80
77277;DHT22;66330;52.166;9.978;2023-04-24T13:05:37;15.60;54.50
77277;DHT22;66330;52.166;9.978;2023-04-24T13:08:02;15.60;54.40
77277;DHT22;66330;52.166;9.978;2023-04-24T13:10:28;15.60;53.10
77277;DHT22;66330;52.166;9.978;2023-04-24T13:12:54;16.10;53.10
77277;DHT22;66330;52.166;9.978;2023-04-24T13:15:19;15.70;52.70
77277;DHT22;66330;52.166;9.978;2023-04-24T13:17:45;16.00;53.00
77277;DHT22;66330;52.166;9.978;2023-04-24T13:20:10;16.10;52.10
77277;DHT22;66330;52.166;9.978;2023-04-24T13:22:36;16.30;52.00
77277;DHT22;66330;52.166;9.978;2023-04-24T13:25:02;16.10;51.00
77277;DHT22;66330;52.166;9.978;2023-04-24T13:27:28;15.80;50.50
77277;DHT22;66330;52.166;9.978;2023-04-24T13:29:53;15.50;50.90
77277;DHT22;66330;52.166;9.978;2023-04-24T13:32:19;15.30;51.20
77277;DHT22;66330;52.166;9.978;2023-04-24T13:34:44;15.10;51.50
77277;DHT22;66330;52.166;9.978;2023-04-24T13:37:10;14.80;51.80
77277;DHT22;66330;52.166;9.978;2023-04-24T13:39:36;14.60;52.20
77277;DHT22;66330;52.166;9.978;2023-04-24T13:42:02;14.90;52.90
77277;DHT22;66330;52.166;9.978;2023-04-24T13:44:27;14.20;53.20
77277;DHT22;66330;52.166;9.978;2023-04-24T13:46:54;14.00;54.10
77277;DHT22;66330;52.166;9.978;2023-04-24T13:49:22;14.50;55.80
77277;DHT22;66330;52.166;9.978;2023-04-24T13:51:50;15.00;55.00
77277;DHT22;66330;52.166;9.978;2023-04-24T13:54:15;15.20;53.20
77277;DHT22;66330;52.166;9.978;2023-04-24T13:56:41;14.80;52.10
77277;DHT22;66330;52.166;9.978;2023-04-24T13:59:07;14.80;51.80
77277;DHT22;66330;52.166;9.978;2023-04-24T14:01:32;14.60;52.40
77277;DHT22;66330;52.166;9.978;2023-04-24T14:03:58;14.40;52.50
77277;DHT22;66330;52.166;9.978;2023-04-24T14:06:24;14.30;52.70
77277;DHT22;66330;52.166;9.978;2023-04-24T14:08:50;13.90;52.50
77277;DHT22;66330;52.166;9.978;2023-04-24T14:11:17;13.60;53.00
77277;DHT22;66330;52.166;9.978;2023-04-24T14:13:43;13.70;53.70
77277;DHT22;66330;52.166;9.978;2023-04-24T14:16:09;12.90;54.40
77277;DHT22;66330;52.166;9.978;2023-04-24T14:18:35;12.70;55.20
77277;DHT22;66330;52.166;9.978;2023-04-24T14:21:01;12.50;55.80
77277;DHT22;66330;52.166;9.978;2023-04-24T14:23:27;12.30;56.80
77277;DHT22;66330;52.166;9.978;2023-04-24T14:25:53;12.20;57.40
77277;DHT22;66330;52.166;9.978;2023-04-24T14:28:19;12.00;58.50
77277;DHT22;66330;52.166;9.978;2023-04-24T14:30:45;12.30;59.50
77277;DHT22;66330;52.166;9.978;2023-04-24T14:33:11;11.80;59.10
77277;DHT22;66330;52.166;9.978;2023-04-24T14:35:38;11.80;60.20
77277;DHT22;66330;52.166;9.978;2023-04-24T14:38:04;11.70;60.90
77277;DHT22;66330;52.166;9.978;2023-04-24T14:40:29;11.80;61.90
77277;DHT22;66330;52.166;9.978;2023-04-24T14:42:56;11.60;62.40
77277;DHT22;66330;52.166;9.978;2023-04-24T14:45:23;11.60;62.60
77277;DHT22;66330;52.166;9.978;2023-04-24T14:47:49;11.50;62.90
77277;DHT22;66330;52.166;9.978;2023-04-24T14:50:14;11.30;63.10
77277;DHT22;66330;52.166;9.978;2023-04-24T14:52:40;11.20;63.70
77277;DHT22;66330;52.166;9.978;2023-04-24T14:55:06;11.10;64.20
77277;DHT22;66330;52.166;9.978;2023-04-24T14:57:32;10.90;65.10
77277;DHT22;66330;52.166;9.978;2023-04-24T14:59:58;10.80;65.80
77277;DHT22;66330;52.166;9.978;2023-04-24T15:02:24;10.70;66.60
77277;DHT22;66330;52.166;9.978;2023-04-24T15:04:49;10.70;66.70
77277;DHT22;66330;52.166;9.978;2023-04-24T15:07:15;10.30;67.10
77277;DHT22;66330;52.166;9.978;2023-04-24T15:09:40;10.50;67.30
77277;DHT22;66330;52.166;9.978;2023-04-24T15:12:06;10.40;68.40
77277;DHT22;66330;52.166;9.978;2023-04-24T15:14:32;10.40;69.20
77277;DHT22;66330;52.166;9.978;2023-04-24T15:16:57;10.90;70.10
77277;DHT22;66330;52.166;9.978;2023-04-24T15:19:23;10.90;70.60
77277;DHT22;66330;52.166;9.978;2023-04-24T15:21:48;10.30;69.90
77277;DHT22;66330;52.166;9.978;2023-04-24T15:24:14;10.30;70.50
77277;DHT22;66330;52.166;9.978;2023-04-24T15:26:39;10.30;70.80
77277;DHT22;66330;52.166;9.978;2023-04-24T15:29:05;10.30;71.30
77277;DHT22;66330;52.166;9.978;2023-04-24T15:31:30;10.30;71.70
77277;DHT22;66330;52.166;9.978;2023-04-24T15:33:56;10.30;71.90
77277;DHT22;66330;52.166;9.978;2023-04-24T15:36:22;10.20;72.00
77277;DHT22;66330;52.166;9.978;2023-04-24T15:38:47;10.20;72.30